Aviation Digital Data Service (ADDS)

Output produced by METARs form (1206 UTC 24 February 2018)
found at http://www.aviationweather.gov/adds/metars/
 
EPBY 241200Z 05012KT 020V080 CAVOK M04/M14 Q1029
TAF EPBY 241130Z 2412/2512 03014KT 9999 SCT022 
     PROB40 2412/2416 03015G25KT 
     BECMG 2420/2422 03004KT 
     BECMG 2507/2509 03014KT
       
EPGD 241200Z 05007KT 020V090 1600 SHSN BR FEW003 SCT013TCU BKN016 M07/M10 Q1031 R11/590295
TAF AMD EPGD 241200Z 2412/2512 03012KT 9999 BKN021 
     TEMPO 2412/2416 1500 SHSN BKN014CB 
     BECMG 2421/2423 4500 SN BR BKN010 
     TEMPO 2421/2512 1100 SHSN BR BKN003 BKN008CB
       
EPKK 241200Z 36011KT 330V030 9999 SCT020CB BKN060 M04/M10 Q1020 R25/42//95
TAF EPKK 241130Z 2412/2512 36015KT 9999 SCT020 
     TEMPO 2412/2417 36015G25KT 1200 SHSN SCT005 BKN014CB 
     PROB40 
     TEMPO 2412/2415 0100 SHSN BKN002 
     TEMPO 2417/2512 4000 -SN BKN010
       
EPKT 241200Z 35011KT 8000 -SHSN FEW002 SCT015CB BKN025 M05/M09 Q1020 RESHSN
TAF EPKT 241130Z 2412/2512 36015KT 9999 SCT020 
     TEMPO 2412/2414 36015G25KT 0100 SHSN BKN002 BKN014CB 
     TEMPO 2414/2417 36015G25KT 1200 SHSN SCT005 BKN014CB 
     TEMPO 2417/2512 4000 -SN BKN010
       
EPLB 241200Z 36011KT 330V030 9999 -SN SCT024 M07/M11 Q1021
TAF EPLB 241130Z 2412/2421 04012KT 9999 SCT025 
     PROB40 
     TEMPO 2412/2416 04015G25KT
       
EPLL 241200Z 03017KT 9999 -SHSN FEW024 SCT028 BKN031CB M06/M11 Q1024
TAF EPLL 241130Z 2412/2512 03012KT 9999 SCT025 
     PROB40 
     TEMPO 2412/2416 04016G26KT
       
EPMO 241200Z 02014KT 9999 FEW027 M07/M13 Q1025 R08/290095
TAF EPMO 241130Z 2412/2512 04012KT 9999 SCT025 
     PROB40 
     TEMPO 2412/2415 05016G26KT
       
EPPO 241200Z 02014KT 9999 BKN029 M04/M12 Q1029 R10/19//95
TAF EPPO 241130Z 2412/2512 04012KT 9999 SCT030 
     TEMPO 2412/2418 04016G32KT -SHSN BKN020CB
       
EPRA 241200Z 04012KT 9999 SCT019 BKN026 M06/M10 Q1022
TAF EPRA 241130Z 2412/2421 06010KT 9999 BKN025 
     PROB30 
     TEMPO 2412/2415 06015G25KT 3000 -SHSN BKN014CB
       
EPRZ 241200Z 03006KT 350V080 9999 -SN FEW005 BKN020 M06/M11 Q1019 R27/29//95
TAF EPRZ 241130Z 2412/2512 01013KT 9999 BKN020 
     TEMPO 2412/2417 1200 SHSN SCT007 BKN016CB 
     TEMPO 2417/2512 3000 -SN BKN010
       
EPSC 241200Z 02009KT 340V060 9999 SCT033 BKN043 M02/M11 Q1031
TAF EPSC 241130Z 2412/2512 05014KT 9999 SCT020 
     PROB30 
     TEMPO 2412/2415 02015G25KT 3000 SHSN BKN015CB 
     BECMG 2415/2418 04004KT 
     PROB40 
     TEMPO 2506/2512 1200 SHSN BKN003 BKN010CB
       
EPSY 241200Z 36015KT 9999 -SN BKN025 M09/M13 Q1027 R01/420195
TAF EPSY 241130Z 2412/2421 03010KT CAVOK
       
EPWA 241200Z 03013KT 9999 FEW032 M04/M12 Q1025 R11/2/0295 NOSIG
TAF EPWA 241130Z 2412/2512 04012KT 9999 SCT025 
     PROB40 
     TEMPO 2412/2415 05016G26KT
       
EPWR 241200Z 02015KT 9999 -SHSN FEW024CB BKN035 M04/M11 Q1026
TAF EPWR 241130Z 2412/2512 36012KT 9999 SCT040 
     TEMPO 2412/2418 36017G30KT -SHSN BKN025CB
       
EPZG 241200Z 02016KT 9999 BKN040 M02/M12 Q1029
TAF EPZG 241130Z 2412/2421 01010KT 9999 SCT040 
     TEMPO 2412/2418 01015G28KT -SHSN BKN020CB
       
EPZG 241200Z 02016KT 9999 BKN040 M02/M12 Q1029
TAF EPZG 241130Z 2412/2421 01010KT 9999 SCT040 
     TEMPO 2412/2418 01015G28KT -SHSN BKN020CB
       
EPKK 241200Z 36011KT 330V030 9999 SCT020CB BKN060 M04/M10 Q1020 R25/42//95
TAF EPKK 241130Z 2412/2512 36015KT 9999 SCT020 
     TEMPO 2412/2417 36015G25KT 1200 SHSN SCT005 BKN014CB 
     PROB40 
     TEMPO 2412/2415 0100 SHSN BKN002 
     TEMPO 2417/2512 4000 -SN BKN010
       
EPSC 241200Z 02009KT 340V060 9999 SCT033 BKN043 M02/M11 Q1031
TAF EPSC 241130Z 2412/2512 05014KT 9999 SCT020 
     PROB30 
     TEMPO 2412/2415 02015G25KT 3000 SHSN BKN015CB 
     BECMG 2415/2418 04004KT 
     PROB40 
     TEMPO 2506/2512 1200 SHSN BKN003 BKN010CB
       
EPRZ 241200Z 03006KT 350V080 9999 -SN FEW005 BKN020 M06/M11 Q1019 R27/29//95
TAF EPRZ 241130Z 2412/2512 01013KT 9999 BKN020 
     TEMPO 2412/2417 1200 SHSN SCT007 BKN016CB 
     TEMPO 2417/2512 3000 -SN BKN010
       
EPPO 241200Z 02014KT 9999 BKN029 M04/M12 Q1029 R10/19//95
TAF EPPO 241130Z 2412/2512 04012KT 9999 SCT030 
     TEMPO 2412/2418 04016G32KT -SHSN BKN020CB
       
EPLL 241200Z 03017KT 9999 -SHSN FEW024 SCT028 BKN031CB M06/M11 Q1024
TAF EPLL 241130Z 2412/2512 03012KT 9999 SCT025 
     PROB40 
     TEMPO 2412/2416 04016G26KT
       
EPWA 241200Z 03013KT 9999 FEW032 M04/M12 Q1025 R11/2/0295 NOSIG
TAF EPWA 241130Z 2412/2512 04012KT 9999 SCT025 
     PROB40 
     TEMPO 2412/2415 05016G26KT
       
EPKT 241200Z 35011KT 8000 -SHSN FEW002 SCT015CB BKN025 M05/M09 Q1020 RESHSN
TAF EPKT 241130Z 2412/2512 36015KT 9999 SCT020 
     TEMPO 2412/2414 36015G25KT 0100 SHSN BKN002 BKN014CB 
     TEMPO 2414/2417 36015G25KT 1200 SHSN SCT005 BKN014CB 
     TEMPO 2417/2512 4000 -SN BKN010
       
EPGD 241200Z 05007KT 020V090 1600 SHSN BR FEW003 SCT013TCU BKN016 M07/M10 Q1031 R11/590295
TAF AMD EPGD 241200Z 2412/2512 03012KT 9999 BKN021 
     TEMPO 2412/2416 1500 SHSN BKN014CB 
     BECMG 2421/2423 4500 SN BR BKN010 
     TEMPO 2421/2512 1100 SHSN BR BKN003 BKN008CB
       
EPWR 241200Z 02015KT 9999 -SHSN FEW024CB BKN035 M04/M11 Q1026
TAF EPWR 241130Z 2412/2512 36012KT 9999 SCT040 
     TEMPO 2412/2418 36017G30KT -SHSN BKN025CB
       
EPBY 241200Z 05012KT 020V080 CAVOK M04/M14 Q1029
TAF EPBY 241130Z 2412/2512 03014KT 9999 SCT022 
     PROB40 2412/2416 03015G25KT 
     BECMG 2420/2422 03004KT 
     BECMG 2507/2509 03014KT
       
EPSY 241200Z 36015KT 9999 -SN BKN025 M09/M13 Q1027 R01/420195
TAF EPSY 241130Z 2412/2421 03010KT CAVOK